Majesty of the Seas — C6FZ8 — position and weather

sailwx.info

Track history (hours):
 
Tides and Currents Weather Stations Pressure Air Temp Water Temp Dewpoint Dewpoint Depression Visibility Wind Speed Wind Dir Waves Ship Positions

Majesty of the Seas (Bahamas)

Last reported at 2014-Jul-25 15:31 UTC. Time now 2014-Jul-25 16:09 UTC.
Position N 25°47' W 080°11'.

Length 268 m; draft 7.7 m.

Type: Passenger vessel. MMSI: 311734000.

Date/timePositionNaut miles runAvg speedWind from/ knotsBaromVisibWave heightAir tempDewpointWater temp
2014-Jul-25 15:31N 25°47' W 080°11'0 0.0
2014-Jul-25 14:31N 25°47' W 080°11'0 0.0
2014-Jul-25 13:31N 25°47' W 080°11'0 0.0
2014-Jul-25 12:31N 25°47' W 080°11'0 0.0
2014-Jul-25 11:31N 25°47' W 080°11'0 0.1
2014-Jul-25 10:33N 25°47' W 080°11'6 6.1
2014-Jul-25 09:32N 25°46' W 080°04'9 9.5
2014-Jul-25 08:33N 25°41' W 079°55'23 0.8
2014-Jul-24 02:33N 25°47' W 079°30'3516.4
2014-Jul-24 00:25N 26°10' W 079°01'30 0.6
2014-Jul-22 00:11N 25°59' W 079°32'1015.8
2014-Jul-21 23:33N 25°55' W 079°42'1615.7
2014-Jul-21 22:33N 25°49' W 079°58'1010.3
2014-Jul-21 21:33N 25°46' W 080°09'2 1.5
2014-Jul-21 20:23N 25°47' W 080°11'0 0.0
2014-Jul-21 20:08N 25°47' W 080°11'0 0.0
2014-Jul-21 19:26N 25°47' W 080°11'0 0.0
2014-Jul-21 18:26N 25°47' W 080°11'0 0.0
2014-Jul-21 17:26N 25°47' W 080°11'0 0.0
2014-Jul-21 16:29N 25°47' W 080°11'0 0.0
2014-Jul-21 15:26N 25°47' W 080°11'0 0.0
2014-Jul-21 14:26N 25°47' W 080°11'0 0.0
2014-Jul-21 13:14N 25°47' W 080°11'0 0.0
2014-Jul-21 12:32N 25°47' W 080°11'0 0.0
2014-Jul-21 11:20N 25°47' W 080°11'0 0.0
2014-Jul-21 10:31N 25°47' W 080°11'7 7.7
2014-Jul-21 09:33N 25°47' W 080°02'1312.8
2014-Jul-21 08:34N 25°52' W 079°49'1111.0
2014-Jul-21 07:34N 25°57' W 079°39'1312.9
2014-Jul-21 06:33N 26°03' W 079°26'1715.5
2014-Jul-21 05:27N 26°10' W 079°08'  
2014-Jul-19 00:26N 26°03' W 079°35'9 9.7
2014-Jul-18 23:34N 25°58' W 079°43'1010.3
2014-Jul-18 22:34N 25°53' W 079°53'10 9.7
2014-Jul-18 21:34N 25°47' W 080°02'8 8.0
2014-Jul-18 20:32N 25°47' W 080°11'0 0.0
2014-Jul-18 19:06N 25°47' W 080°11'0 0.0
2014-Jul-18 18:21N 25°47' W 080°11'0 0.0
2014-Jul-18 17:27N 25°47' W 080°11'0 0.0
2014-Jul-18 16:24N 25°47' W 080°11'0 0.0
2014-Jul-18 15:30N 25°47' W 080°11'0 0.0
2014-Jul-18 14:30N 25°47' W 080°11'0 0.0
2014-Jul-18 13:30N 25°47' W 080°11'0 0.0
2014-Jul-18 12:12N 25°47' W 080°11'0 0.0
2014-Jul-18 11:18N 25°47' W 080°11'0 0.1
2014-Jul-18 10:33N 25°47' W 080°11'6 5.9
2014-Jul-18 09:33N 25°46' W 080°04'9 9.3
2014-Jul-18 08:33N 25°41' W 079°56'27 0.9
2014-Jul-17 02:33N 25°50' W 079°28'1615.9
2014-Jul-17 01:33N 26°03' W 079°17'  
Track history (hours):
 
Tides and Currents Weather Stations Pressure Air Temp Water Temp Dewpoint Dewpoint Depression Visibility Wind Speed Wind Dir Waves Ship Positions

Majesty of the Seas (Bahamas)

Last reported at 2014-Jul-25 15:31 UTC. Time now 2014-Jul-25 16:09 UTC.
Position N 25°47' W 080°11'.

Length 268 m; draft 7.7 m.

Type: Passenger vessel. MMSI: 311734000.

Date/timePositionNaut miles runAvg speedWind from/ knotsBaromVisibWave heightAir tempDewpointWater temp
2014-Jul-25 15:31N 25°47' W 080°11'0 0.0
2014-Jul-25 14:31N 25°47' W 080°11'0 0.0
2014-Jul-25 13:31N 25°47' W 080°11'0 0.0
2014-Jul-25 12:31N 25°47' W 080°11'0 0.0
2014-Jul-25 11:31N 25°47' W 080°11'0 0.1
2014-Jul-25 10:33N 25°47' W 080°11'6 6.1
2014-Jul-25 09:32N 25°46' W 080°04'9 9.5
2014-Jul-25 08:33N 25°41' W 079°55'23 0.8
2014-Jul-24 02:33N 25°47' W 079°30'3516.4
2014-Jul-24 00:25N 26°10' W 079°01'30 0.6
2014-Jul-22 00:11N 25°59' W 079°32'1015.8
2014-Jul-21 23:33N 25°55' W 079°42'1615.7
2014-Jul-21 22:33N 25°49' W 079°58'1010.3
2014-Jul-21 21:33N 25°46' W 080°09'2 1.5
2014-Jul-21 20:23N 25°47' W 080°11'0 0.0
2014-Jul-21 20:08N 25°47' W 080°11'0 0.0
2014-Jul-21 19:26N 25°47' W 080°11'0 0.0
2014-Jul-21 18:26N 25°47' W 080°11'0 0.0
2014-Jul-21 17:26N 25°47' W 080°11'0 0.0
2014-Jul-21 16:29N 25°47' W 080°11'0 0.0
2014-Jul-21 15:26N 25°47' W 080°11'0 0.0
2014-Jul-21 14:26N 25°47' W 080°11'0 0.0
2014-Jul-21 13:14N 25°47' W 080°11'0 0.0
2014-Jul-21 12:32N 25°47' W 080°11'0 0.0
2014-Jul-21 11:20N 25°47' W 080°11'0 0.0
2014-Jul-21 10:31N 25°47' W 080°11'7 7.7
2014-Jul-21 09:33N 25°47' W 080°02'1312.8
2014-Jul-21 08:34N 25°52' W 079°49'1111.0
2014-Jul-21 07:34N 25°57' W 079°39'1312.9
2014-Jul-21 06:33N 26°03' W 079°26'1715.5
2014-Jul-21 05:27N 26°10' W 079°08'  
2014-Jul-19 00:26N 26°03' W 079°35'9 9.7
2014-Jul-18 23:34N 25°58' W 079°43'1010.3
2014-Jul-18 22:34N 25°53' W 079°53'10 9.7
2014-Jul-18 21:34N 25°47' W 080°02'8 8.0
2014-Jul-18 20:32N 25°47' W 080°11'0 0.0
2014-Jul-18 19:06N 25°47' W 080°11'0 0.0
2014-Jul-18 18:21N 25°47' W 080°11'0 0.0
2014-Jul-18 17:27N 25°47' W 080°11'0 0.0
2014-Jul-18 16:24N 25°47' W 080°11'0 0.0
2014-Jul-18 15:30N 25°47' W 080°11'0 0.0
2014-Jul-18 14:30N 25°47' W 080°11'0 0.0
2014-Jul-18 13:30N 25°47' W 080°11'0 0.0
2014-Jul-18 12:12N 25°47' W 080°11'0 0.0
2014-Jul-18 11:18N 25°47' W 080°11'0 0.1
2014-Jul-18 10:33N 25°47' W 080°11'6 5.9
2014-Jul-18 09:33N 25°46' W 080°04'9 9.3
2014-Jul-18 08:33N 25°41' W 079°56'27 0.9
2014-Jul-17 02:33N 25°50' W 079°28'1615.9
2014-Jul-17 01:33N 26°03' W 079°17'  

Dump ship's entire track history